sensor_id;sensor_type;location;lat;lon;timestamp;P1;durP1;ratioP1;P2;durP2;ratioP2
65271;SDS011;51868;48.812;8.198;2022-10-22T00:00:57;1.20;;;0.50;;
65271;SDS011;51868;48.812;8.198;2022-10-22T00:03:25;1.30;;;0.60;;
65271;SDS011;51868;48.812;8.198;2022-10-22T00:05:52;1.52;;;0.50;;
65271;SDS011;51868;48.812;8.198;2022-10-22T00:08:21;1.63;;;0.57;;
65271;SDS011;51868;48.812;8.198;2022-10-22T00:10:49;3.03;;;0.50;;
65271;SDS011;51868;48.812;8.198;2022-10-22T00:13:18;3.20;;;0.60;;
65271;SDS011;51868;48.812;8.198;2022-10-22T00:15:46;2.80;;;0.50;;
65271;SDS011;51868;48.812;8.198;2022-10-22T00:18:13;1.17;;;0.30;;
65271;SDS011;51868;48.812;8.198;2022-10-22T00:20:41;0.60;;;0.50;;
65271;SDS011;51868;48.812;8.198;2022-10-22T00:23:09;0.55;;;0.45;;
65271;SDS011;51868;48.812;8.198;2022-10-22T00:25:38;0.80;;;0.40;;
65271;SDS011;51868;48.812;8.198;2022-10-22T00:28:06;0.55;;;0.40;;
65271;SDS011;51868;48.812;8.198;2022-10-22T00:30:37;1.48;;;0.50;;
65271;SDS011;51868;48.812;8.198;2022-10-22T00:33:05;0.40;;;0.40;;
65271;SDS011;51868;48.812;8.198;2022-10-22T00:35:33;1.23;;;0.47;;
65271;SDS011;51868;48.812;8.198;2022-10-22T00:38:01;1.10;;;0.60;;
65271;SDS011;51868;48.812;8.198;2022-10-22T00:40:28;1.42;;;0.40;;
65271;SDS011;51868;48.812;8.198;2022-10-22T00:42:58;1.17;;;0.63;;
65271;SDS011;51868;48.812;8.198;2022-10-22T00:45:26;1.00;;;0.57;;
65271;SDS011;51868;48.812;8.198;2022-10-22T00:47:56;0.50;;;0.40;;
65271;SDS011;51868;48.812;8.198;2022-10-22T00:50:29;1.13;;;0.50;;
65271;SDS011;51868;48.812;8.198;2022-10-22T00:55:28;1.50;;;0.65;;
65271;SDS011;51868;48.812;8.198;2022-10-22T00:57:59;0.40;;;0.40;;
65271;SDS011;51868;48.812;8.198;2022-10-22T01:00:28;1.58;;;0.70;;
65271;SDS011;51868;48.812;8.198;2022-10-22T01:02:56;0.90;;;0.50;;
65271;SDS011;51868;48.812;8.198;2022-10-22T01:05:25;1.77;;;0.60;;
65271;SDS011;51868;48.812;8.198;2022-10-22T01:07:54;0.77;;;0.50;;
65271;SDS011;51868;48.812;8.198;2022-10-22T01:10:28;1.63;;;0.70;;
65271;SDS011;51868;48.812;8.198;2022-10-22T01:13:08;3.33;;;0.70;;
65271;SDS011;51868;48.812;8.198;2022-10-22T01:15:51;0.98;;;0.63;;
65271;SDS011;51868;48.812;8.198;2022-10-22T01:18:26;1.95;;;0.80;;
65271;SDS011;51868;48.812;8.198;2022-10-22T01:21:02;1.00;;;0.70;;
65271;SDS011;51868;48.812;8.198;2022-10-22T01:26:42;5.78;;;2.58;;
65271;SDS011;51868;48.812;8.198;2022-10-22T01:29:26;8.23;;;4.55;;
65271;SDS011;51868;48.812;8.198;2022-10-22T01:31:57;15.70;;;8.25;;
65271;SDS011;51868;48.812;8.198;2022-10-22T01:34:27;6.57;;;4.53;;
65271;SDS011;51868;48.812;8.198;2022-10-22T01:36:57;10.93;;;6.63;;
65271;SDS011;51868;48.812;8.198;2022-10-22T01:39:26;4.45;;;3.20;;
65271;SDS011;51868;48.812;8.198;2022-10-22T01:41:55;0.88;;;0.80;;
65271;SDS011;51868;48.812;8.198;2022-10-22T01:44:26;3.05;;;1.60;;
65271;SDS011;51868;48.812;8.198;2022-10-22T01:46:57;1.60;;;0.80;;
65271;SDS011;51868;48.812;8.198;2022-10-22T01:49:38;4.32;;;0.50;;
65271;SDS011;51868;48.812;8.198;2022-10-22T01:52:26;1.83;;;0.73;;
65271;SDS011;51868;48.812;8.198;2022-10-22T01:55:09;0.67;;;0.60;;
65271;SDS011;51868;48.812;8.198;2022-10-22T01:57:45;1.45;;;0.68;;
65271;SDS011;51868;48.812;8.198;2022-10-22T02:00:22;1.25;;;0.90;;
65271;SDS011;51868;48.812;8.198;2022-10-22T02:02:53;1.27;;;0.68;;
65271;SDS011;51868;48.812;8.198;2022-10-22T02:05:27;4.47;;;0.70;;
65271;SDS011;51868;48.812;8.198;2022-10-22T02:07:59;1.95;;;0.70;;
65271;SDS011;51868;48.812;8.198;2022-10-22T02:10:29;2.85;;;0.73;;
65271;SDS011;51868;48.812;8.198;2022-10-22T02:12:57;0.50;;;0.50;;
65271;SDS011;51868;48.812;8.198;2022-10-22T02:15:28;0.82;;;0.80;;
65271;SDS011;51868;48.812;8.198;2022-10-22T02:17:59;4.43;;;0.90;;
65271;SDS011;51868;48.812;8.198;2022-10-22T02:20:28;1.77;;;1.05;;
65271;SDS011;51868;48.812;8.198;2022-10-22T02:22:59;3.70;;;1.08;;
65271;SDS011;51868;48.812;8.198;2022-10-22T02:25:28;2.97;;;0.85;;
65271;SDS011;51868;48.812;8.198;2022-10-22T02:27:59;1.75;;;0.90;;
65271;SDS011;51868;48.812;8.198;2022-10-22T02:30:31;3.13;;;0.80;;
65271;SDS011;51868;48.812;8.198;2022-10-22T02:33:01;1.17;;;0.73;;
65271;SDS011;51868;48.812;8.198;2022-10-22T02:35:34;1.55;;;0.70;;
65271;SDS011;51868;48.812;8.198;2022-10-22T02:38:03;2.08;;;0.80;;
65271;SDS011;51868;48.812;8.198;2022-10-22T02:40:31;2.45;;;1.02;;
65271;SDS011;51868;48.812;8.198;2022-10-22T02:42:59;1.48;;;0.90;;
65271;SDS011;51868;48.812;8.198;2022-10-22T02:45:31;1.13;;;0.80;;
65271;SDS011;51868;48.812;8.198;2022-10-22T02:48:00;1.20;;;0.82;;
65271;SDS011;51868;48.812;8.198;2022-10-22T02:50:28;1.80;;;0.70;;
65271;SDS011;51868;48.812;8.198;2022-10-22T02:52:55;2.50;;;1.10;;
65271;SDS011;51868;48.812;8.198;2022-10-22T02:55:23;0.93;;;0.80;;
65271;SDS011;51868;48.812;8.198;2022-10-22T02:57:50;2.05;;;1.00;;
65271;SDS011;51868;48.812;8.198;2022-10-22T03:00:18;1.48;;;0.80;;
65271;SDS011;51868;48.812;8.198;2022-10-22T03:02:48;2.25;;;0.93;;
65271;SDS011;51868;48.812;8.198;2022-10-22T03:05:16;1.75;;;1.00;;
65271;SDS011;51868;48.812;8.198;2022-10-22T03:07:43;6.07;;;1.20;;
65271;SDS011;51868;48.812;8.198;2022-10-22T03:10:11;1.45;;;0.88;;
65271;SDS011;51868;48.812;8.198;2022-10-22T03:12:39;2.38;;;1.00;;
65271;SDS011;51868;48.812;8.198;2022-10-22T03:15:07;1.40;;;1.20;;
65271;SDS011;51868;48.812;8.198;2022-10-22T03:17:35;2.08;;;1.10;;
65271;SDS011;51868;48.812;8.198;2022-10-22T03:20:05;3.00;;;0.95;;
65271;SDS011;51868;48.812;8.198;2022-10-22T03:22:34;1.73;;;0.90;;
65271;SDS011;51868;48.812;8.198;2022-10-22T03:25:03;3.17;;;1.13;;
65271;SDS011;51868;48.812;8.198;2022-10-22T03:27:34;1.70;;;1.10;;
65271;SDS011;51868;48.812;8.198;2022-10-22T03:30:04;2.35;;;0.85;;
65271;SDS011;51868;48.812;8.198;2022-10-22T03:32:33;3.25;;;2.05;;
65271;SDS011;51868;48.812;8.198;2022-10-22T03:35:00;1.25;;;0.82;;
65271;SDS011;51868;48.812;8.198;2022-10-22T03:37:29;3.20;;;1.10;;
65271;SDS011;51868;48.812;8.198;2022-10-22T03:39:57;1.63;;;0.80;;
65271;SDS011;51868;48.812;8.198;2022-10-22T03:42:26;1.77;;;1.08;;
65271;SDS011;51868;48.812;8.198;2022-10-22T03:44:53;2.22;;;0.88;;
65271;SDS011;51868;48.812;8.198;2022-10-22T03:47:21;1.77;;;1.00;;
65271;SDS011;51868;48.812;8.198;2022-10-22T03:49:49;3.10;;;1.05;;
65271;SDS011;51868;48.812;8.198;2022-10-22T03:52:17;1.85;;;1.00;;
65271;SDS011;51868;48.812;8.198;2022-10-22T03:54:46;5.13;;;1.30;;
65271;SDS011;51868;48.812;8.198;2022-10-22T03:57:14;2.10;;;1.30;;
65271;SDS011;51868;48.812;8.198;2022-10-22T03:59:43;2.08;;;1.02;;
65271;SDS011;51868;48.812;8.198;2022-10-22T04:02:12;2.05;;;1.00;;
65271;SDS011;51868;48.812;8.198;2022-10-22T04:04:40;3.72;;;1.15;;
65271;SDS011;51868;48.812;8.198;2022-10-22T04:07:08;1.77;;;1.10;;
65271;SDS011;51868;48.812;8.198;2022-10-22T04:09:36;1.98;;;1.10;;
65271;SDS011;51868;48.812;8.198;2022-10-22T04:12:05;1.17;;;0.90;;
65271;SDS011;51868;48.812;8.198;2022-10-22T04:14:34;3.25;;;1.20;;
65271;SDS011;51868;48.812;8.198;2022-10-22T04:17:02;5.25;;;1.23;;
65271;SDS011;51868;48.812;8.198;2022-10-22T04:19:30;1.95;;;1.10;;
65271;SDS011;51868;48.812;8.198;2022-10-22T04:21:58;3.03;;;1.35;;
65271;SDS011;51868;48.812;8.198;2022-10-22T04:24:26;5.82;;;1.50;;
65271;SDS011;51868;48.812;8.198;2022-10-22T04:26:54;2.95;;;1.60;;
65271;SDS011;51868;48.812;8.198;2022-10-22T04:29:24;2.53;;;1.38;;
65271;SDS011;51868;48.812;8.198;2022-10-22T04:31:52;2.88;;;1.40;;
65271;SDS011;51868;48.812;8.198;2022-10-22T04:34:19;4.18;;;1.80;;
65271;SDS011;51868;48.812;8.198;2022-10-22T04:36:47;3.58;;;1.48;;
65271;SDS011;51868;48.812;8.198;2022-10-22T04:39:15;2.03;;;1.30;;
65271;SDS011;51868;48.812;8.198;2022-10-22T04:41:42;2.17;;;1.38;;
65271;SDS011;51868;48.812;8.198;2022-10-22T04:44:10;1.73;;;1.17;;
65271;SDS011;51868;48.812;8.198;2022-10-22T04:46:45;3.03;;;1.30;;
65271;SDS011;51868;48.812;8.198;2022-10-22T04:49:14;2.97;;;1.58;;
65271;SDS011;51868;48.812;8.198;2022-10-22T04:51:41;1.48;;;1.30;;
65271;SDS011;51868;48.812;8.198;2022-10-22T04:54:09;2.28;;;1.60;;
65271;SDS011;51868;48.812;8.198;2022-10-22T04:56:37;4.50;;;1.42;;
65271;SDS011;51868;48.812;8.198;2022-10-22T04:59:05;3.08;;;1.35;;
65271;SDS011;51868;48.812;8.198;2022-10-22T05:01:35;4.07;;;1.95;;
65271;SDS011;51868;48.812;8.198;2022-10-22T05:04:11;4.00;;;1.35;;
65271;SDS011;51868;48.812;8.198;2022-10-22T05:06:40;3.38;;;1.33;;
65271;SDS011;51868;48.812;8.198;2022-10-22T05:09:09;2.17;;;1.25;;
65271;SDS011;51868;48.812;8.198;2022-10-22T05:11:40;3.90;;;1.60;;
65271;SDS011;51868;48.812;8.198;2022-10-22T05:14:10;3.67;;;1.23;;
65271;SDS011;51868;48.812;8.198;2022-10-22T05:16:39;1.25;;;1.05;;
65271;SDS011;51868;48.812;8.198;2022-10-22T05:19:06;5.28;;;1.77;;
65271;SDS011;51868;48.812;8.198;2022-10-22T05:21:36;4.95;;;1.23;;
65271;SDS011;51868;48.812;8.198;2022-10-22T05:24:04;3.67;;;1.10;;
65271;SDS011;51868;48.812;8.198;2022-10-22T05:26:32;3.53;;;1.20;;
65271;SDS011;51868;48.812;8.198;2022-10-22T05:28:59;2.80;;;1.33;;
65271;SDS011;51868;48.812;8.198;2022-10-22T05:31:27;3.13;;;1.50;;
65271;SDS011;51868;48.812;8.198;2022-10-22T05:33:55;1.50;;;1.02;;
65271;SDS011;51868;48.812;8.198;2022-10-22T05:36:22;4.82;;;1.35;;
65271;SDS011;51868;48.812;8.198;2022-10-22T05:38:52;7.50;;;1.40;;
65271;SDS011;51868;48.812;8.198;2022-10-22T05:41:21;4.03;;;1.30;;
65271;SDS011;51868;48.812;8.198;2022-10-22T05:43:50;4.68;;;1.30;;
65271;SDS011;51868;48.812;8.198;2022-10-22T05:46:18;2.00;;;1.33;;
65271;SDS011;51868;48.812;8.198;2022-10-22T05:48:48;1.60;;;1.10;;
65271;SDS011;51868;48.812;8.198;2022-10-22T05:51:17;1.60;;;1.20;;
65271;SDS011;51868;48.812;8.198;2022-10-22T05:53:45;3.45;;;2.00;;
65271;SDS011;51868;48.812;8.198;2022-10-22T05:56:14;1.50;;;1.30;;
65271;SDS011;51868;48.812;8.198;2022-10-22T05:58:43;2.55;;;1.92;;
65271;SDS011;51868;48.812;8.198;2022-10-22T06:01:12;4.45;;;2.22;;
65271;SDS011;51868;48.812;8.198;2022-10-22T06:03:41;4.80;;;1.48;;
65271;SDS011;51868;48.812;8.198;2022-10-22T06:06:13;1.88;;;1.48;;
65271;SDS011;51868;48.812;8.198;2022-10-22T06:08:45;3.03;;;1.90;;
65271;SDS011;51868;48.812;8.198;2022-10-22T06:11:15;3.88;;;2.85;;
65271;SDS011;51868;48.812;8.198;2022-10-22T06:13:44;2.92;;;1.70;;
65271;SDS011;51868;48.812;8.198;2022-10-22T06:16:12;3.25;;;1.60;;
65271;SDS011;51868;48.812;8.198;2022-10-22T06:18:40;5.97;;;1.50;;
65271;SDS011;51868;48.812;8.198;2022-10-22T06:21:08;2.33;;;1.60;;
65271;SDS011;51868;48.812;8.198;2022-10-22T06:23:38;2.40;;;1.67;;
65271;SDS011;51868;48.812;8.198;2022-10-22T06:26:07;4.05;;;2.40;;
65271;SDS011;51868;48.812;8.198;2022-10-22T06:28:37;4.60;;;1.73;;
65271;SDS011;51868;48.812;8.198;2022-10-22T06:31:05;3.97;;;1.92;;
65271;SDS011;51868;48.812;8.198;2022-10-22T06:33:33;4.05;;;1.70;;
65271;SDS011;51868;48.812;8.198;2022-10-22T06:36:08;2.50;;;1.92;;
65271;SDS011;51868;48.812;8.198;2022-10-22T06:38:37;3.15;;;1.70;;
65271;SDS011;51868;48.812;8.198;2022-10-22T06:41:06;6.10;;;2.03;;
65271;SDS011;51868;48.812;8.198;2022-10-22T06:43:35;5.38;;;2.10;;
65271;SDS011;51868;48.812;8.198;2022-10-22T06:46:05;2.38;;;2.03;;
65271;SDS011;51868;48.812;8.198;2022-10-22T06:48:42;3.05;;;2.00;;
65271;SDS011;51868;48.812;8.198;2022-10-22T06:51:14;3.30;;;1.90;;
65271;SDS011;51868;48.812;8.198;2022-10-22T06:53:42;7.35;;;2.20;;
65271;SDS011;51868;48.812;8.198;2022-10-22T06:56:11;4.97;;;1.90;;
65271;SDS011;51868;48.812;8.198;2022-10-22T06:58:40;3.67;;;2.63;;
65271;SDS011;51868;48.812;8.198;2022-10-22T07:01:11;6.25;;;2.35;;
65271;SDS011;51868;48.812;8.198;2022-10-22T07:03:40;4.38;;;1.95;;
65271;SDS011;51868;48.812;8.198;2022-10-22T07:06:09;6.93;;;2.75;;
65271;SDS011;51868;48.812;8.198;2022-10-22T07:08:38;3.15;;;2.50;;
65271;SDS011;51868;48.812;8.198;2022-10-22T07:11:10;3.53;;;2.67;;
65271;SDS011;51868;48.812;8.198;2022-10-22T07:13:39;5.82;;;3.33;;
65271;SDS011;51868;48.812;8.198;2022-10-22T07:16:07;6.90;;;3.17;;
65271;SDS011;51868;48.812;8.198;2022-10-22T07:18:37;4.10;;;2.78;;
65271;SDS011;51868;48.812;8.198;2022-10-22T07:21:06;7.30;;;3.28;;
65271;SDS011;51868;48.812;8.198;2022-10-22T07:23:35;4.30;;;3.67;;
65271;SDS011;51868;48.812;8.198;2022-10-22T07:26:03;4.30;;;3.38;;
65271;SDS011;51868;48.812;8.198;2022-10-22T07:28:32;12.02;;;4.30;;
65271;SDS011;51868;48.812;8.198;2022-10-22T07:31:01;5.05;;;3.45;;
65271;SDS011;51868;48.812;8.198;2022-10-22T07:33:31;4.05;;;3.65;;
65271;SDS011;51868;48.812;8.198;2022-10-22T07:35:59;4.50;;;3.95;;
65271;SDS011;51868;48.812;8.198;2022-10-22T07:38:28;4.88;;;3.60;;
65271;SDS011;51868;48.812;8.198;2022-10-22T07:40:56;4.82;;;3.90;;
65271;SDS011;51868;48.812;8.198;2022-10-22T07:43:25;4.30;;;3.78;;
65271;SDS011;51868;48.812;8.198;2022-10-22T07:45:53;12.57;;;3.50;;
65271;SDS011;51868;48.812;8.198;2022-10-22T07:48:22;3.88;;;2.67;;
65271;SDS011;51868;48.812;8.198;2022-10-22T07:50:52;3.28;;;2.85;;
65271;SDS011;51868;48.812;8.198;2022-10-22T07:53:22;5.38;;;2.55;;
65271;SDS011;51868;48.812;8.198;2022-10-22T07:55:50;4.28;;;2.85;;
65271;SDS011;51868;48.812;8.198;2022-10-22T07:58:19;3.38;;;2.53;;
65271;SDS011;51868;48.812;8.198;2022-10-22T08:00:47;2.85;;;2.58;;
65271;SDS011;51868;48.812;8.198;2022-10-22T08:03:16;3.90;;;2.42;;
65271;SDS011;51868;48.812;8.198;2022-10-22T08:05:44;2.50;;;2.05;;
65271;SDS011;51868;48.812;8.198;2022-10-22T08:08:15;4.05;;;2.20;;
65271;SDS011;51868;48.812;8.198;2022-10-22T08:10:43;4.75;;;2.00;;
65271;SDS011;51868;48.812;8.198;2022-10-22T08:13:10;4.30;;;2.00;;
65271;SDS011;51868;48.812;8.198;2022-10-22T08:15:40;3.03;;;2.30;;
65271;SDS011;51868;48.812;8.198;2022-10-22T08:18:08;4.35;;;2.20;;
65271;SDS011;51868;48.812;8.198;2022-10-22T08:20:37;3.63;;;2.50;;
65271;SDS011;51868;48.812;8.198;2022-10-22T08:23:05;3.92;;;2.70;;
65271;SDS011;51868;48.812;8.198;2022-10-22T08:25:35;3.72;;;2.75;;
65271;SDS011;51868;48.812;8.198;2022-10-22T08:28:03;4.40;;;2.50;;
65271;SDS011;51868;48.812;8.198;2022-10-22T08:30:31;2.42;;;1.90;;
65271;SDS011;51868;48.812;8.198;2022-10-22T08:32:59;2.65;;;1.80;;
65271;SDS011;51868;48.812;8.198;2022-10-22T08:35:28;6.47;;;1.40;;
65271;SDS011;51868;48.812;8.198;2022-10-22T08:37:56;3.75;;;1.20;;
65271;SDS011;51868;48.812;8.198;2022-10-22T08:40:28;1.13;;;1.00;;
65271;SDS011;51868;48.812;8.198;2022-10-22T08:43:08;3.72;;;1.40;;
65271;SDS011;51868;48.812;8.198;2022-10-22T08:45:51;3.65;;;1.60;;
65271;SDS011;51868;48.812;8.198;2022-10-22T08:48:35;2.60;;;1.23;;
65271;SDS011;51868;48.812;8.198;2022-10-22T08:51:10;3.80;;;1.55;;
65271;SDS011;51868;48.812;8.198;2022-10-22T08:53:47;1.38;;;1.00;;
65271;SDS011;51868;48.812;8.198;2022-10-22T08:56:25;2.10;;;1.17;;
65271;SDS011;51868;48.812;8.198;2022-10-22T08:58:56;3.33;;;1.40;;
65271;SDS011;51868;48.812;8.198;2022-10-22T09:01:30;6.57;;;1.10;;
65271;SDS011;51868;48.812;8.198;2022-10-22T09:04:03;1.83;;;1.10;;
65271;SDS011;51868;48.812;8.198;2022-10-22T09:06:35;2.03;;;1.10;;
65271;SDS011;51868;48.812;8.198;2022-10-22T09:09:09;3.55;;;1.25;;
65271;SDS011;51868;48.812;8.198;2022-10-22T09:11:39;2.40;;;1.30;;
65271;SDS011;51868;48.812;8.198;2022-10-22T09:14:11;3.75;;;1.10;;
65271;SDS011;51868;48.812;8.198;2022-10-22T09:19:20;1.67;;;0.80;;
65271;SDS011;51868;48.812;8.198;2022-10-22T09:21:53;2.53;;;0.98;;
65271;SDS011;51868;48.812;8.198;2022-10-22T09:24:29;2.10;;;0.90;;
65271;SDS011;51868;48.812;8.198;2022-10-22T09:27:00;1.35;;;0.70;;
65271;SDS011;51868;48.812;8.198;2022-10-22T09:29:36;4.78;;;0.93;;
65271;SDS011;51868;48.812;8.198;2022-10-22T09:32:04;1.98;;;0.73;;
65271;SDS011;51868;48.812;8.198;2022-10-22T09:34:32;3.05;;;1.10;;
65271;SDS011;51868;48.812;8.198;2022-10-22T09:37:02;3.75;;;0.90;;
65271;SDS011;51868;48.812;8.198;2022-10-22T09:39:33;1.23;;;0.60;;
65271;SDS011;51868;48.812;8.198;2022-10-22T09:42:03;1.42;;;0.60;;
65271;SDS011;51868;48.812;8.198;2022-10-22T09:44:36;3.35;;;0.80;;
65271;SDS011;51868;48.812;8.198;2022-10-22T09:47:26;1.17;;;0.60;;
65271;SDS011;51868;48.812;8.198;2022-10-22T09:50:24;1.25;;;0.80;;
65271;SDS011;51868;48.812;8.198;2022-10-22T09:52:57;0.93;;;0.70;;
65271;SDS011;51868;48.812;8.198;2022-10-22T09:55:27;1.33;;;0.80;;
65271;SDS011;51868;48.812;8.198;2022-10-22T09:57:57;3.70;;;0.95;;
65271;SDS011;51868;48.812;8.198;2022-10-22T10:00:28;2.55;;;0.80;;
65271;SDS011;51868;48.812;8.198;2022-10-22T10:02:57;1.52;;;0.85;;
65271;SDS011;51868;48.812;8.198;2022-10-22T10:05:27;1.67;;;0.63;;
65271;SDS011;51868;48.812;8.198;2022-10-22T10:07:57;0.70;;;0.60;;
65271;SDS011;51868;48.812;8.198;2022-10-22T10:10:33;2.40;;;0.70;;
65271;SDS011;51868;48.812;8.198;2022-10-22T10:13:13;1.27;;;0.70;;
65271;SDS011;51868;48.812;8.198;2022-10-22T10:15:59;1.20;;;0.82;;
65271;SDS011;51868;48.812;8.198;2022-10-22T10:18:39;2.58;;;0.80;;
65271;SDS011;51868;48.812;8.198;2022-10-22T10:21:23;3.42;;;0.93;;
65271;SDS011;51868;48.812;8.198;2022-10-22T10:23:59;4.10;;;1.00;;
65271;SDS011;51868;48.812;8.198;2022-10-22T10:26:36;3.92;;;0.98;;
65271;SDS011;51868;48.812;8.198;2022-10-22T10:29:13;2.80;;;0.90;;
65271;SDS011;51868;48.812;8.198;2022-10-22T10:31:59;1.25;;;0.93;;
65271;SDS011;51868;48.812;8.198;2022-10-22T10:34:50;1.00;;;0.80;;
65271;SDS011;51868;48.812;8.198;2022-10-22T10:37:25;4.53;;;1.02;;
65271;SDS011;51868;48.812;8.198;2022-10-22T10:40:06;3.33;;;0.82;;
65271;SDS011;51868;48.812;8.198;2022-10-22T10:42:45;4.28;;;1.30;;
65271;SDS011;51868;48.812;8.198;2022-10-22T10:45:19;1.38;;;0.90;;
65271;SDS011;51868;48.812;8.198;2022-10-22T10:50:59;2.53;;;1.10;;
65271;SDS011;51868;48.812;8.198;2022-10-22T10:53:44;1.58;;;1.13;;
65271;SDS011;51868;48.812;8.198;2022-10-22T10:56:35;1.35;;;0.95;;
65271;SDS011;51868;48.812;8.198;2022-10-22T10:59:09;1.52;;;0.93;;
65271;SDS011;51868;48.812;8.198;2022-10-22T11:01:46;2.58;;;1.10;;
65271;SDS011;51868;48.812;8.198;2022-10-22T11:04:26;2.13;;;0.90;;
65271;SDS011;51868;48.812;8.198;2022-10-22T11:07:12;3.05;;;1.00;;
65271;SDS011;51868;48.812;8.198;2022-10-22T11:09:59;1.35;;;0.90;;
65271;SDS011;51868;48.812;8.198;2022-10-22T11:12:32;1.70;;;1.10;;
65271;SDS011;51868;48.812;8.198;2022-10-22T11:15:06;1.75;;;0.90;;
65271;SDS011;51868;48.812;8.198;2022-10-22T11:17:39;3.13;;;1.00;;
65271;SDS011;51868;48.812;8.198;2022-10-22T11:20:13;5.15;;;1.30;;
65271;SDS011;51868;48.812;8.198;2022-10-22T11:22:45;4.28;;;1.00;;
65271;SDS011;51868;48.812;8.198;2022-10-22T11:25:37;1.65;;;1.15;;
65271;SDS011;51868;48.812;8.198;2022-10-22T11:30:40;3.65;;;1.10;;
65271;SDS011;51868;48.812;8.198;2022-10-22T11:33:13;1.73;;;1.00;;
65271;SDS011;51868;48.812;8.198;2022-10-22T11:35:45;2.58;;;1.00;;
65271;SDS011;51868;48.812;8.198;2022-10-22T11:38:15;2.55;;;1.17;;
65271;SDS011;51868;48.812;8.198;2022-10-22T11:40:49;2.45;;;1.20;;
65271;SDS011;51868;48.812;8.198;2022-10-22T11:43:26;2.63;;;1.15;;
65271;SDS011;51868;48.812;8.198;2022-10-22T11:45:56;2.95;;;0.98;;
65271;SDS011;51868;48.812;8.198;2022-10-22T11:48:28;3.28;;;1.45;;
65271;SDS011;51868;48.812;8.198;2022-10-22T11:53:58;2.30;;;1.38;;
65271;SDS011;51868;48.812;8.198;2022-10-22T11:56:37;1.23;;;0.95;;
65271;SDS011;51868;48.812;8.198;2022-10-22T11:59:12;4.28;;;1.60;;
65271;SDS011;51868;48.812;8.198;2022-10-22T12:02:19;7.00;;;1.30;;
65271;SDS011;51868;48.812;8.198;2022-10-22T12:04:50;3.10;;;1.08;;
65271;SDS011;51868;48.812;8.198;2022-10-22T12:07:30;4.93;;;1.40;;
65271;SDS011;51868;48.812;8.198;2022-10-22T12:10:00;4.32;;;1.10;;
65271;SDS011;51868;48.812;8.198;2022-10-22T12:12:36;3.92;;;1.00;;
65271;SDS011;51868;48.812;8.198;2022-10-22T12:15:19;2.90;;;1.13;;
65271;SDS011;51868;48.812;8.198;2022-10-22T12:20:25;6.47;;;1.10;;
65271;SDS011;51868;48.812;8.198;2022-10-22T12:22:55;3.85;;;1.40;;
65271;SDS011;51868;48.812;8.198;2022-10-22T12:25:28;2.40;;;1.05;;
65271;SDS011;51868;48.812;8.198;2022-10-22T12:28:01;4.47;;;1.10;;
65271;SDS011;51868;48.812;8.198;2022-10-22T12:30:32;3.85;;;1.10;;
65271;SDS011;51868;48.812;8.198;2022-10-22T12:33:04;2.33;;;1.20;;
65271;SDS011;51868;48.812;8.198;2022-10-22T12:35:33;5.15;;;1.08;;
65271;SDS011;51868;48.812;8.198;2022-10-22T12:38:13;2.47;;;1.15;;
65271;SDS011;51868;48.812;8.198;2022-10-22T12:40:43;2.47;;;1.27;;
65271;SDS011;51868;48.812;8.198;2022-10-22T12:43:15;5.05;;;1.52;;
65271;SDS011;51868;48.812;8.198;2022-10-22T12:45:48;3.65;;;1.35;;
65271;SDS011;51868;48.812;8.198;2022-10-22T12:48:18;2.25;;;1.30;;
65271;SDS011;51868;48.812;8.198;2022-10-22T12:50:49;2.57;;;1.20;;
65271;SDS011;51868;48.812;8.198;2022-10-22T12:53:21;1.90;;;1.10;;
65271;SDS011;51868;48.812;8.198;2022-10-22T12:55:52;2.28;;;1.10;;
65271;SDS011;51868;48.812;8.198;2022-10-22T12:58:26;4.07;;;1.63;;
65271;SDS011;51868;48.812;8.198;2022-10-22T13:00:59;3.63;;;1.50;;
65271;SDS011;51868;48.812;8.198;2022-10-22T13:03:29;3.08;;;1.35;;
65271;SDS011;51868;48.812;8.198;2022-10-22T13:06:10;1.92;;;1.42;;
65271;SDS011;51868;48.812;8.198;2022-10-22T13:08:40;3.53;;;1.30;;
65271;SDS011;51868;48.812;8.198;2022-10-22T13:11:09;2.25;;;1.20;;
65271;SDS011;51868;48.812;8.198;2022-10-22T13:13:41;2.58;;;1.20;;
65271;SDS011;51868;48.812;8.198;2022-10-22T13:16:15;3.45;;;1.35;;
65271;SDS011;51868;48.812;8.198;2022-10-22T13:18:45;2.08;;;1.25;;
65271;SDS011;51868;48.812;8.198;2022-10-22T13:21:24;3.78;;;1.73;;
65271;SDS011;51868;48.812;8.198;2022-10-22T13:23:56;2.40;;;1.38;;
65271;SDS011;51868;48.812;8.198;2022-10-22T13:26:29;3.15;;;1.63;;
65271;SDS011;51868;48.812;8.198;2022-10-22T13:28:58;3.70;;;1.38;;
65271;SDS011;51868;48.812;8.198;2022-10-22T13:31:28;5.78;;;1.40;;
65271;SDS011;51868;48.812;8.198;2022-10-22T13:33:59;3.10;;;1.30;;
65271;SDS011;51868;48.812;8.198;2022-10-22T13:36:37;2.55;;;1.17;;
65271;SDS011;51868;48.812;8.198;2022-10-22T13:39:09;3.00;;;1.10;;
65271;SDS011;51868;48.812;8.198;2022-10-22T13:41:39;2.95;;;1.40;;
65271;SDS011;51868;48.812;8.198;2022-10-22T13:44:07;2.72;;;1.20;;
65271;SDS011;51868;48.812;8.198;2022-10-22T13:46:35;4.97;;;1.90;;
65271;SDS011;51868;48.812;8.198;2022-10-22T13:49:09;4.70;;;1.25;;
65271;SDS011;51868;48.812;8.198;2022-10-22T13:51:41;2.17;;;1.10;;
65271;SDS011;51868;48.812;8.198;2022-10-22T13:54:12;5.22;;;1.13;;
65271;SDS011;51868;48.812;8.198;2022-10-22T13:56:42;2.80;;;1.15;;
65271;SDS011;51868;48.812;8.198;2022-10-22T13:59:15;2.42;;;1.10;;
65271;SDS011;51868;48.812;8.198;2022-10-22T14:01:48;3.97;;;1.23;;
65271;SDS011;51868;48.812;8.198;2022-10-22T14:04:16;4.22;;;1.30;;
65271;SDS011;51868;48.812;8.198;2022-10-22T14:06:46;4.10;;;1.30;;
65271;SDS011;51868;48.812;8.198;2022-10-22T14:09:15;3.63;;;1.20;;
65271;SDS011;51868;48.812;8.198;2022-10-22T14:11:43;2.97;;;1.20;;
65271;SDS011;51868;48.812;8.198;2022-10-22T14:14:14;3.58;;;1.15;;
65271;SDS011;51868;48.812;8.198;2022-10-22T14:16:42;3.88;;;1.05;;
65271;SDS011;51868;48.812;8.198;2022-10-22T14:19:12;3.95;;;1.10;;
65271;SDS011;51868;48.812;8.198;2022-10-22T14:21:42;4.82;;;0.90;;
65271;SDS011;51868;48.812;8.198;2022-10-22T14:24:10;3.25;;;1.15;;
65271;SDS011;51868;48.812;8.198;2022-10-22T14:26:40;1.85;;;0.90;;
65271;SDS011;51868;48.812;8.198;2022-10-22T14:29:08;3.33;;;1.00;;
65271;SDS011;51868;48.812;8.198;2022-10-22T14:31:37;2.05;;;0.90;;
65271;SDS011;51868;48.812;8.198;2022-10-22T14:34:10;3.40;;;1.27;;
65271;SDS011;51868;48.812;8.198;2022-10-22T14:36:39;5.70;;;1.35;;
65271;SDS011;51868;48.812;8.198;2022-10-22T14:39:09;4.85;;;1.33;;
65271;SDS011;51868;48.812;8.198;2022-10-22T14:41:36;1.67;;;1.10;;
65271;SDS011;51868;48.812;8.198;2022-10-22T14:44:06;3.67;;;1.30;;
65271;SDS011;51868;48.812;8.198;2022-10-22T14:46:37;2.10;;;1.02;;
65271;SDS011;51868;48.812;8.198;2022-10-22T14:49:09;4.75;;;1.30;;
65271;SDS011;51868;48.812;8.198;2022-10-22T14:51:37;5.03;;;1.33;;
65271;SDS011;51868;48.812;8.198;2022-10-22T14:54:05;3.72;;;1.10;;
65271;SDS011;51868;48.812;8.198;2022-10-22T14:56:33;2.58;;;1.25;;
65271;SDS011;51868;48.812;8.198;2022-10-22T14:59:08;2.90;;;1.15;;
65271;SDS011;51868;48.812;8.198;2022-10-22T15:01:36;4.75;;;1.48;;
65271;SDS011;51868;48.812;8.198;2022-10-22T15:04:05;3.25;;;1.20;;
65271;SDS011;51868;48.812;8.198;2022-10-22T15:06:33;3.90;;;1.27;;
65271;SDS011;51868;48.812;8.198;2022-10-22T15:09:01;3.90;;;1.23;;
65271;SDS011;51868;48.812;8.198;2022-10-22T15:11:29;3.95;;;1.30;;
65271;SDS011;51868;48.812;8.198;2022-10-22T15:13:58;4.65;;;1.20;;
65271;SDS011;51868;48.812;8.198;2022-10-22T15:16:27;5.25;;;1.48;;
65271;SDS011;51868;48.812;8.198;2022-10-22T15:18:55;6.35;;;1.27;;
65271;SDS011;51868;48.812;8.198;2022-10-22T15:21:24;5.80;;;1.40;;
65271;SDS011;51868;48.812;8.198;2022-10-22T15:23:52;5.40;;;1.55;;
65271;SDS011;51868;48.812;8.198;2022-10-22T15:26:20;2.35;;;1.02;;
65271;SDS011;51868;48.812;8.198;2022-10-22T15:28:48;3.85;;;1.20;;
65271;SDS011;51868;48.812;8.198;2022-10-22T15:31:15;3.20;;;1.30;;